sensor_id;sensor_type;location;lat;lon;timestamp;P1;durP1;ratioP1;P2;durP2;ratioP2
61590;SDS011;57639;52.410;-1.966;2023-08-01T00:02:26;3.15;;;1.52;;
61590;SDS011;57639;52.410;-1.966;2023-08-01T00:05:32;4.97;;;2.08;;
61590;SDS011;57639;52.410;-1.966;2023-08-01T00:08:40;3.60;;;1.80;;
61590;SDS011;57639;52.410;-1.966;2023-08-01T00:11:49;3.00;;;1.65;;
61590;SDS011;57639;52.410;-1.966;2023-08-01T00:14:57;2.80;;;1.50;;
61590;SDS011;57639;52.410;-1.966;2023-08-01T00:18:03;3.22;;;1.65;;
61590;SDS011;57639;52.410;-1.966;2023-08-01T00:21:10;2.47;;;1.30;;
61590;SDS011;57639;52.410;-1.966;2023-08-01T00:24:16;2.75;;;1.70;;
61590;SDS011;57639;52.410;-1.966;2023-08-01T00:27:25;3.60;;;1.48;;
61590;SDS011;57639;52.410;-1.966;2023-08-01T00:30:31;3.03;;;1.40;;
61590;SDS011;57639;52.410;-1.966;2023-08-01T00:33:37;2.78;;;1.40;;
61590;SDS011;57639;52.410;-1.966;2023-08-01T00:36:44;3.15;;;1.80;;
61590;SDS011;57639;52.410;-1.966;2023-08-01T00:39:51;3.03;;;1.75;;
61590;SDS011;57639;52.410;-1.966;2023-08-01T00:43:00;3.00;;;1.30;;
61590;SDS011;57639;52.410;-1.966;2023-08-01T00:46:08;3.22;;;1.63;;
61590;SDS011;57639;52.410;-1.966;2023-08-01T00:49:15;4.55;;;1.70;;
61590;SDS011;57639;52.410;-1.966;2023-08-01T00:52:22;2.92;;;1.52;;
61590;SDS011;57639;52.410;-1.966;2023-08-01T00:55:29;2.63;;;1.63;;
61590;SDS011;57639;52.410;-1.966;2023-08-01T00:58:40;2.67;;;1.60;;
61590;SDS011;57639;52.410;-1.966;2023-08-01T01:01:47;3.13;;;1.63;;
61590;SDS011;57639;52.410;-1.966;2023-08-01T01:04:53;3.08;;;1.48;;
61590;SDS011;57639;52.410;-1.966;2023-08-01T01:07:59;3.33;;;1.33;;
61590;SDS011;57639;52.410;-1.966;2023-08-01T01:11:07;2.90;;;1.55;;
61590;SDS011;57639;52.410;-1.966;2023-08-01T01:14:16;2.47;;;1.48;;
61590;SDS011;57639;52.410;-1.966;2023-08-01T01:17:22;3.07;;;1.57;;
61590;SDS011;57639;52.410;-1.966;2023-08-01T01:20:33;2.58;;;1.48;;
61590;SDS011;57639;52.410;-1.966;2023-08-01T01:23:40;4.13;;;1.80;;
61590;SDS011;57639;52.410;-1.966;2023-08-01T01:26:48;2.92;;;1.40;;
61590;SDS011;57639;52.410;-1.966;2023-08-01T01:29:54;3.17;;;1.63;;
61590;SDS011;57639;52.410;-1.966;2023-08-01T01:33:02;3.38;;;1.70;;
61590;SDS011;57639;52.410;-1.966;2023-08-01T01:36:12;2.65;;;1.52;;
61590;SDS011;57639;52.410;-1.966;2023-08-01T01:39:18;3.43;;;1.60;;
61590;SDS011;57639;52.410;-1.966;2023-08-01T01:42:25;2.90;;;1.38;;
61590;SDS011;57639;52.410;-1.966;2023-08-01T01:45:31;3.50;;;1.55;;
61590;SDS011;57639;52.410;-1.966;2023-08-01T01:48:37;2.53;;;1.42;;
61590;SDS011;57639;52.410;-1.966;2023-08-01T01:51:47;2.55;;;1.30;;
61590;SDS011;57639;52.410;-1.966;2023-08-01T01:54:53;3.73;;;1.70;;
61590;SDS011;57639;52.410;-1.966;2023-08-01T01:58:00;2.58;;;1.35;;
61590;SDS011;57639;52.410;-1.966;2023-08-01T02:01:06;3.33;;;1.50;;
61590;SDS011;57639;52.410;-1.966;2023-08-01T02:04:12;3.53;;;1.52;;
61590;SDS011;57639;52.410;-1.966;2023-08-01T02:07:21;3.85;;;1.60;;
61590;SDS011;57639;52.410;-1.966;2023-08-01T02:10:28;2.90;;;1.40;;
61590;SDS011;57639;52.410;-1.966;2023-08-01T02:13:34;2.67;;;1.30;;
61590;SDS011;57639;52.410;-1.966;2023-08-01T02:16:41;2.42;;;1.10;;
61590;SDS011;57639;52.410;-1.966;2023-08-01T02:19:47;3.20;;;1.23;;
61590;SDS011;57639;52.410;-1.966;2023-08-01T02:22:57;2.72;;;1.33;;
61590;SDS011;57639;52.410;-1.966;2023-08-01T02:26:06;2.65;;;1.30;;
61590;SDS011;57639;52.410;-1.966;2023-08-01T02:29:12;3.05;;;1.50;;
61590;SDS011;57639;52.410;-1.966;2023-08-01T02:32:18;3.85;;;1.45;;
61590;SDS011;57639;52.410;-1.966;2023-08-01T02:35:24;2.97;;;1.33;;
61590;SDS011;57639;52.410;-1.966;2023-08-01T02:38:34;3.08;;;1.48;;
61590;SDS011;57639;52.410;-1.966;2023-08-01T02:41:40;3.47;;;1.60;;
61590;SDS011;57639;52.410;-1.966;2023-08-01T02:44:46;3.55;;;1.48;;
61590;SDS011;57639;52.410;-1.966;2023-08-01T02:47:52;2.28;;;1.15;;
61590;SDS011;57639;52.410;-1.966;2023-08-01T02:50:59;2.30;;;1.27;;
61590;SDS011;57639;52.410;-1.966;2023-08-01T02:54:08;3.15;;;1.30;;
61590;SDS011;57639;52.410;-1.966;2023-08-01T02:57:14;3.07;;;1.67;;
61590;SDS011;57639;52.410;-1.966;2023-08-01T03:00:21;2.97;;;1.27;;
61590;SDS011;57639;52.410;-1.966;2023-08-01T03:03:28;3.55;;;1.30;;
61590;SDS011;57639;52.410;-1.966;2023-08-01T03:06:34;2.45;;;1.17;;
61590;SDS011;57639;52.410;-1.966;2023-08-01T03:09:43;3.00;;;1.30;;
61590;SDS011;57639;52.410;-1.966;2023-08-01T03:12:49;2.37;;;1.50;;
61590;SDS011;57639;52.410;-1.966;2023-08-01T03:15:56;2.17;;;1.10;;
61590;SDS011;57639;52.410;-1.966;2023-08-01T03:19:02;2.17;;;1.10;;
61590;SDS011;57639;52.410;-1.966;2023-08-01T03:22:10;2.63;;;1.27;;
61590;SDS011;57639;52.410;-1.966;2023-08-01T03:25:20;2.55;;;1.15;;
61590;SDS011;57639;52.410;-1.966;2023-08-01T03:28:26;4.05;;;1.27;;
61590;SDS011;57639;52.410;-1.966;2023-08-01T03:31:33;2.72;;;1.20;;
61590;SDS011;57639;52.410;-1.966;2023-08-01T03:34:39;2.60;;;1.23;;
61590;SDS011;57639;52.410;-1.966;2023-08-01T03:37:45;2.00;;;1.23;;
61590;SDS011;57639;52.410;-1.966;2023-08-01T03:40:54;3.47;;;1.35;;
61590;SDS011;57639;52.410;-1.966;2023-08-01T03:44:02;2.20;;;1.10;;
61590;SDS011;57639;52.410;-1.966;2023-08-01T03:47:08;2.67;;;1.00;;
61590;SDS011;57639;52.410;-1.966;2023-08-01T03:50:15;2.03;;;1.05;;
61590;SDS011;57639;52.410;-1.966;2023-08-01T03:53:21;2.17;;;1.17;;
61590;SDS011;57639;52.410;-1.966;2023-08-01T03:56:30;2.75;;;1.17;;
61590;SDS011;57639;52.410;-1.966;2023-08-01T03:59:37;2.10;;;1.23;;
61590;SDS011;57639;52.410;-1.966;2023-08-01T04:02:43;3.42;;;1.10;;
61590;SDS011;57639;52.410;-1.966;2023-08-01T04:05:50;3.13;;;1.23;;
61590;SDS011;57639;52.410;-1.966;2023-08-01T04:08:56;1.92;;;1.10;;
61590;SDS011;57639;52.410;-1.966;2023-08-01T04:12:08;3.08;;;1.08;;
61590;SDS011;57639;52.410;-1.966;2023-08-01T04:15:15;2.50;;;1.20;;
61590;SDS011;57639;52.410;-1.966;2023-08-01T04:18:21;3.00;;;1.40;;
61590;SDS011;57639;52.410;-1.966;2023-08-01T04:21:27;2.65;;;1.20;;
61590;SDS011;57639;52.410;-1.966;2023-08-01T04:24:34;2.10;;;1.00;;
61590;SDS011;57639;52.410;-1.966;2023-08-01T04:27:43;2.80;;;1.27;;
61590;SDS011;57639;52.410;-1.966;2023-08-01T04:30:49;2.63;;;1.03;;
61590;SDS011;57639;52.410;-1.966;2023-08-01T04:33:55;2.38;;;1.20;;
61590;SDS011;57639;52.410;-1.966;2023-08-01T04:37:02;1.98;;;0.88;;
61590;SDS011;57639;52.410;-1.966;2023-08-01T04:40:08;2.08;;;0.93;;
61590;SDS011;57639;52.410;-1.966;2023-08-01T04:43:18;2.70;;;1.00;;
61590;SDS011;57639;52.410;-1.966;2023-08-01T04:46:24;2.28;;;0.93;;
61590;SDS011;57639;52.410;-1.966;2023-08-01T04:49:30;2.67;;;1.15;;
61590;SDS011;57639;52.410;-1.966;2023-08-01T04:52:37;2.95;;;1.15;;
61590;SDS011;57639;52.410;-1.966;2023-08-01T04:55:43;3.80;;;1.27;;
61590;SDS011;57639;52.410;-1.966;2023-08-01T04:58:52;2.10;;;1.10;;
61590;SDS011;57639;52.410;-1.966;2023-08-01T05:01:58;2.67;;;1.00;;
61590;SDS011;57639;52.410;-1.966;2023-08-01T05:05:05;1.88;;;0.90;;
61590;SDS011;57639;52.410;-1.966;2023-08-01T05:08:12;1.60;;;0.95;;
61590;SDS011;57639;52.410;-1.966;2023-08-01T05:11:21;2.17;;;1.00;;
61590;SDS011;57639;52.410;-1.966;2023-08-01T05:14:30;2.27;;;1.13;;
61590;SDS011;57639;52.410;-1.966;2023-08-01T05:17:36;2.07;;;1.07;;
61590;SDS011;57639;52.410;-1.966;2023-08-01T05:20:43;2.97;;;0.90;;
61590;SDS011;57639;52.410;-1.966;2023-08-01T05:23:49;1.90;;;0.90;;
61590;SDS011;57639;52.410;-1.966;2023-08-01T05:26:55;2.38;;;1.05;;
61590;SDS011;57639;52.410;-1.966;2023-08-01T05:30:05;1.98;;;0.93;;
61590;SDS011;57639;52.410;-1.966;2023-08-01T05:33:12;3.20;;;0.95;;
61590;SDS011;57639;52.410;-1.966;2023-08-01T05:36:19;2.08;;;0.80;;
61590;SDS011;57639;52.410;-1.966;2023-08-01T05:39:25;1.92;;;0.88;;
61590;SDS011;57639;52.410;-1.966;2023-08-01T05:42:31;2.45;;;1.08;;
61590;SDS011;57639;52.410;-1.966;2023-08-01T05:45:40;1.70;;;0.90;;
61590;SDS011;57639;52.410;-1.966;2023-08-01T05:48:47;2.07;;;1.00;;
61590;SDS011;57639;52.410;-1.966;2023-08-01T05:51:53;1.85;;;0.77;;
61590;SDS011;57639;52.410;-1.966;2023-08-01T05:54:59;2.58;;;1.10;;
61590;SDS011;57639;52.410;-1.966;2023-08-01T05:58:09;2.45;;;0.98;;
61590;SDS011;57639;52.410;-1.966;2023-08-01T06:01:18;2.38;;;0.90;;
61590;SDS011;57639;52.410;-1.966;2023-08-01T06:04:25;1.88;;;0.80;;
61590;SDS011;57639;52.410;-1.966;2023-08-01T06:07:31;3.38;;;0.95;;
61590;SDS011;57639;52.410;-1.966;2023-08-01T06:10:37;1.73;;;0.93;;
61590;SDS011;57639;52.410;-1.966;2023-08-01T06:13:44;2.40;;;0.82;;
61590;SDS011;57639;52.410;-1.966;2023-08-01T06:16:53;2.92;;;0.90;;
61590;SDS011;57639;52.410;-1.966;2023-08-01T06:19:59;3.77;;;1.33;;
61590;SDS011;57639;52.410;-1.966;2023-08-01T06:23:06;1.35;;;0.70;;
61590;SDS011;57639;52.410;-1.966;2023-08-01T06:26:13;2.38;;;1.00;;
61590;SDS011;57639;52.410;-1.966;2023-08-01T06:29:19;1.90;;;0.90;;
61590;SDS011;57639;52.410;-1.966;2023-08-01T06:32:29;1.83;;;0.88;;
61590;SDS011;57639;52.410;-1.966;2023-08-01T06:35:35;1.73;;;0.80;;
61590;SDS011;57639;52.410;-1.966;2023-08-01T06:38:42;1.83;;;0.88;;
61590;SDS011;57639;52.410;-1.966;2023-08-01T06:41:48;2.75;;;0.80;;
61590;SDS011;57639;52.410;-1.966;2023-08-01T06:44:55;2.22;;;0.90;;
61590;SDS011;57639;52.410;-1.966;2023-08-01T06:48:04;1.73;;;0.80;;
61590;SDS011;57639;52.410;-1.966;2023-08-01T06:51:10;2.75;;;0.80;;
61590;SDS011;57639;52.410;-1.966;2023-08-01T06:54:17;2.35;;;0.90;;
61590;SDS011;57639;52.410;-1.966;2023-08-01T06:57:23;3.53;;;0.90;;
61590;SDS011;57639;52.410;-1.966;2023-08-01T07:00:29;3.03;;;0.75;;
61590;SDS011;57639;52.410;-1.966;2023-08-01T07:03:38;2.53;;;0.93;;
61590;SDS011;57639;52.410;-1.966;2023-08-01T07:06:44;2.15;;;0.90;;
61590;SDS011;57639;52.410;-1.966;2023-08-01T07:09:51;2.00;;;0.77;;
61590;SDS011;57639;52.410;-1.966;2023-08-01T07:12:57;2.10;;;0.90;;
61590;SDS011;57639;52.410;-1.966;2023-08-01T07:16:06;2.05;;;1.10;;
61590;SDS011;57639;52.410;-1.966;2023-08-01T07:19:15;3.35;;;0.95;;
61590;SDS011;57639;52.410;-1.966;2023-08-01T07:22:21;1.83;;;0.83;;
61590;SDS011;57639;52.410;-1.966;2023-08-01T07:25:27;1.73;;;0.75;;
61590;SDS011;57639;52.410;-1.966;2023-08-01T07:28:35;2.20;;;0.80;;
61590;SDS011;57639;52.410;-1.966;2023-08-01T07:31:41;1.58;;;0.75;;
61590;SDS011;57639;52.410;-1.966;2023-08-01T07:34:51;2.33;;;0.82;;
61590;SDS011;57639;52.410;-1.966;2023-08-01T07:37:57;2.23;;;1.00;;
61590;SDS011;57639;52.410;-1.966;2023-08-01T07:41:04;3.22;;;0.88;;
61590;SDS011;57639;52.410;-1.966;2023-08-01T07:44:11;2.25;;;0.85;;
61590;SDS011;57639;52.410;-1.966;2023-08-01T07:47:18;2.05;;;0.85;;
61590;SDS011;57639;52.410;-1.966;2023-08-01T07:50:28;1.75;;;0.90;;
61590;SDS011;57639;52.410;-1.966;2023-08-01T07:53:34;1.37;;;0.77;;
61590;SDS011;57639;52.410;-1.966;2023-08-01T07:56:41;2.40;;;0.80;;
61590;SDS011;57639;52.410;-1.966;2023-08-01T07:59:51;1.60;;;0.80;;
61590;SDS011;57639;52.410;-1.966;2023-08-01T08:02:57;1.75;;;0.80;;
61590;SDS011;57639;52.410;-1.966;2023-08-01T08:06:06;1.73;;;0.70;;
61590;SDS011;57639;52.410;-1.966;2023-08-01T08:09:12;3.03;;;0.90;;
61590;SDS011;57639;52.410;-1.966;2023-08-01T08:12:18;1.70;;;0.80;;
61590;SDS011;57639;52.410;-1.966;2023-08-01T08:15:25;2.15;;;0.77;;
61590;SDS011;57639;52.410;-1.966;2023-08-01T08:18:36;1.35;;;0.70;;
61590;SDS011;57639;52.410;-1.966;2023-08-01T08:21:45;2.53;;;0.80;;
61590;SDS011;57639;52.410;-1.966;2023-08-01T08:24:51;2.07;;;0.97;;
61590;SDS011;57639;52.410;-1.966;2023-08-01T08:27:57;2.13;;;0.90;;
61590;SDS011;57639;52.410;-1.966;2023-08-01T08:31:04;2.67;;;1.00;;
61590;SDS011;57639;52.410;-1.966;2023-08-01T08:34:13;2.45;;;0.88;;
61590;SDS011;57639;52.410;-1.966;2023-08-01T08:37:22;1.15;;;0.65;;
61590;SDS011;57639;52.410;-1.966;2023-08-01T08:40:28;1.90;;;0.70;;
61590;SDS011;57639;52.410;-1.966;2023-08-01T08:43:37;3.58;;;0.80;;
61590;SDS011;57639;52.410;-1.966;2023-08-01T08:46:44;3.10;;;1.00;;
61590;SDS011;57639;52.410;-1.966;2023-08-01T08:49:55;2.60;;;0.82;;
61590;SDS011;57639;52.410;-1.966;2023-08-01T08:53:04;3.38;;;0.95;;
61590;SDS011;57639;52.410;-1.966;2023-08-01T08:56:17;3.15;;;1.00;;
61590;SDS011;57639;52.410;-1.966;2023-08-01T08:59:24;2.53;;;1.08;;
61590;SDS011;57639;52.410;-1.966;2023-08-01T09:02:32;2.83;;;0.80;;
61590;SDS011;57639;52.410;-1.966;2023-08-01T09:05:43;2.45;;;0.70;;
61590;SDS011;57639;52.410;-1.966;2023-08-01T09:08:58;3.40;;;0.90;;
61590;SDS011;57639;52.410;-1.966;2023-08-01T09:12:09;2.30;;;0.80;;
61590;SDS011;57639;52.410;-1.966;2023-08-01T09:15:15;1.55;;;0.80;;
61590;SDS011;57639;52.410;-1.966;2023-08-01T09:18:22;2.35;;;1.15;;
61590;SDS011;57639;52.410;-1.966;2023-08-01T09:21:31;1.65;;;0.80;;
61590;SDS011;57639;52.410;-1.966;2023-08-01T09:27:58;1.77;;;0.80;;
61590;SDS011;57639;52.410;-1.966;2023-08-01T09:31:09;1.77;;;0.90;;
61590;SDS011;57639;52.410;-1.966;2023-08-01T09:34:19;3.08;;;1.02;;
61590;SDS011;57639;52.410;-1.966;2023-08-01T09:37:37;1.48;;;0.80;;
61590;SDS011;57639;52.410;-1.966;2023-08-01T09:40:47;3.05;;;1.00;;
61590;SDS011;57639;52.410;-1.966;2023-08-01T09:43:53;1.47;;;0.80;;
61590;SDS011;57639;52.410;-1.966;2023-08-01T09:47:01;2.58;;;0.70;;
61590;SDS011;57639;52.410;-1.966;2023-08-01T09:50:09;1.50;;;0.70;;
61590;SDS011;57639;52.410;-1.966;2023-08-01T09:53:17;2.55;;;0.82;;
61590;SDS011;57639;52.410;-1.966;2023-08-01T09:56:26;3.22;;;1.00;;
61590;SDS011;57639;52.410;-1.966;2023-08-01T09:59:33;2.60;;;0.98;;
61590;SDS011;57639;52.410;-1.966;2023-08-01T10:02:37;2.83;;;0.90;;
61590;SDS011;57639;52.410;-1.966;2023-08-01T10:05:47;2.72;;;1.02;;
61590;SDS011;57639;52.410;-1.966;2023-08-01T10:08:56;2.78;;;0.95;;
61590;SDS011;57639;52.410;-1.966;2023-08-01T10:12:07;1.73;;;0.73;;
61590;SDS011;57639;52.410;-1.966;2023-08-01T10:15:15;3.38;;;0.95;;
61590;SDS011;57639;52.410;-1.966;2023-08-01T10:18:21;2.70;;;0.90;;
61590;SDS011;57639;52.410;-1.966;2023-08-01T10:21:28;2.03;;;0.80;;
61590;SDS011;57639;52.410;-1.966;2023-08-01T10:24:35;2.20;;;0.90;;
61590;SDS011;57639;52.410;-1.966;2023-08-01T10:27:56;2.67;;;0.90;;
61590;SDS011;57639;52.410;-1.966;2023-08-01T10:31:07;1.70;;;0.70;;
61590;SDS011;57639;52.410;-1.966;2023-08-01T10:34:19;1.67;;;0.73;;
61590;SDS011;57639;52.410;-1.966;2023-08-01T10:37:27;1.60;;;0.70;;
61590;SDS011;57639;52.410;-1.966;2023-08-01T10:40:45;2.08;;;0.90;;
61590;SDS011;57639;52.410;-1.966;2023-08-01T10:43:54;2.03;;;0.82;;
61590;SDS011;57639;52.410;-1.966;2023-08-01T10:47:26;1.88;;;0.75;;
61590;SDS011;57639;52.410;-1.966;2023-08-01T10:50:36;2.33;;;1.00;;
61590;SDS011;57639;52.410;-1.966;2023-08-01T10:53:43;1.20;;;0.60;;
61590;SDS011;57639;52.410;-1.966;2023-08-01T10:56:50;1.73;;;0.80;;
61590;SDS011;57639;52.410;-1.966;2023-08-01T11:00:01;1.80;;;0.80;;
61590;SDS011;57639;52.410;-1.966;2023-08-01T11:03:12;1.55;;;0.70;;
61590;SDS011;57639;52.410;-1.966;2023-08-01T11:06:18;1.08;;;0.65;;
61590;SDS011;57639;52.410;-1.966;2023-08-01T11:09:25;3.30;;;0.85;;
61590;SDS011;57639;52.410;-1.966;2023-08-01T11:12:42;2.33;;;0.75;;
61590;SDS011;57639;52.410;-1.966;2023-08-01T11:15:52;2.33;;;0.80;;
61590;SDS011;57639;52.410;-1.966;2023-08-01T11:18:59;1.58;;;0.70;;
61590;SDS011;57639;52.410;-1.966;2023-08-01T11:22:08;2.33;;;0.80;;
61590;SDS011;57639;52.410;-1.966;2023-08-01T11:28:22;0.80;;;0.60;;
61590;SDS011;57639;52.410;-1.966;2023-08-01T11:31:34;1.25;;;0.70;;
61590;SDS011;57639;52.410;-1.966;2023-08-01T11:34:41;2.70;;;0.80;;
61590;SDS011;57639;52.410;-1.966;2023-08-01T11:37:52;1.02;;;0.70;;
61590;SDS011;57639;52.410;-1.966;2023-08-01T11:44:05;2.13;;;0.80;;
61590;SDS011;57639;52.410;-1.966;2023-08-01T11:47:17;1.52;;;0.60;;
61590;SDS011;57639;52.410;-1.966;2023-08-01T11:50:25;1.80;;;0.60;;
61590;SDS011;57639;52.410;-1.966;2023-08-01T11:53:31;2.42;;;0.70;;
61590;SDS011;57639;52.410;-1.966;2023-08-01T11:56:42;1.38;;;0.50;;
61590;SDS011;57639;52.410;-1.966;2023-08-01T11:59:48;1.20;;;0.60;;
61590;SDS011;57639;52.410;-1.966;2023-08-01T12:03:08;1.88;;;0.65;;
61590;SDS011;57639;52.410;-1.966;2023-08-01T12:06:17;1.67;;;0.70;;
61590;SDS011;57639;52.410;-1.966;2023-08-01T12:09:26;1.60;;;0.70;;
61590;SDS011;57639;52.410;-1.966;2023-08-01T12:12:43;1.27;;;0.57;;
61590;SDS011;57639;52.410;-1.966;2023-08-01T12:15:50;1.08;;;0.85;;
61590;SDS011;57639;52.410;-1.966;2023-08-01T12:19:01;1.95;;;0.77;;
61590;SDS011;57639;52.410;-1.966;2023-08-01T12:22:08;1.45;;;0.82;;
61590;SDS011;57639;52.410;-1.966;2023-08-01T12:25:15;1.65;;;0.60;;
61590;SDS011;57639;52.410;-1.966;2023-08-01T12:28:21;1.23;;;0.70;;
61590;SDS011;57639;52.410;-1.966;2023-08-01T12:31:28;2.28;;;0.70;;
61590;SDS011;57639;52.410;-1.966;2023-08-01T12:34:37;1.60;;;0.60;;
61590;SDS011;57639;52.410;-1.966;2023-08-01T12:37:43;1.57;;;0.73;;
61590;SDS011;57639;52.410;-1.966;2023-08-01T12:40:50;1.33;;;0.70;;
61590;SDS011;57639;52.410;-1.966;2023-08-01T12:43:56;1.88;;;0.50;;
61590;SDS011;57639;52.410;-1.966;2023-08-01T12:47:03;1.60;;;0.68;;
61590;SDS011;57639;52.410;-1.966;2023-08-01T12:50:17;1.27;;;0.63;;
61590;SDS011;57639;52.410;-1.966;2023-08-01T12:53:23;0.98;;;0.55;;
61590;SDS011;57639;52.410;-1.966;2023-08-01T12:56:30;1.38;;;0.82;;
61590;SDS011;57639;52.410;-1.966;2023-08-01T12:59:37;1.55;;;0.70;;
61590;SDS011;57639;52.410;-1.966;2023-08-01T13:02:44;1.58;;;0.60;;
61590;SDS011;57639;52.410;-1.966;2023-08-01T13:05:54;1.23;;;0.60;;
61590;SDS011;57639;52.410;-1.966;2023-08-01T13:09:01;1.00;;;0.60;;
61590;SDS011;57639;52.410;-1.966;2023-08-01T13:12:10;2.00;;;0.70;;
61590;SDS011;57639;52.410;-1.966;2023-08-01T13:15:16;1.85;;;0.68;;
61590;SDS011;57639;52.410;-1.966;2023-08-01T13:18:23;1.35;;;0.50;;
61590;SDS011;57639;52.410;-1.966;2023-08-01T13:21:32;1.55;;;0.60;;
61590;SDS011;57639;52.410;-1.966;2023-08-01T13:24:41;1.50;;;0.60;;
61590;SDS011;57639;52.410;-1.966;2023-08-01T13:27:53;1.10;;;0.65;;
61590;SDS011;57639;52.410;-1.966;2023-08-01T13:31:00;1.80;;;0.60;;
61590;SDS011;57639;52.410;-1.966;2023-08-01T13:34:06;1.38;;;0.63;;
61590;SDS011;57639;52.410;-1.966;2023-08-01T13:37:17;1.20;;;0.60;;
61590;SDS011;57639;52.410;-1.966;2023-08-01T13:40:24;1.80;;;0.70;;
61590;SDS011;57639;52.410;-1.966;2023-08-01T13:43:33;1.40;;;0.80;;
61590;SDS011;57639;52.410;-1.966;2023-08-01T13:46:39;1.05;;;0.65;;
61590;SDS011;57639;52.410;-1.966;2023-08-01T13:49:45;1.50;;;0.70;;
61590;SDS011;57639;52.410;-1.966;2023-08-01T13:52:55;1.23;;;0.60;;
61590;SDS011;57639;52.410;-1.966;2023-08-01T13:59:08;2.88;;;0.80;;
61590;SDS011;57639;52.410;-1.966;2023-08-01T14:02:14;1.27;;;0.60;;
61590;SDS011;57639;52.410;-1.966;2023-08-01T14:05:21;1.17;;;0.70;;
61590;SDS011;57639;52.410;-1.966;2023-08-01T14:08:32;1.30;;;0.68;;
61590;SDS011;57639;52.410;-1.966;2023-08-01T14:11:39;1.63;;;0.60;;
61590;SDS011;57639;52.410;-1.966;2023-08-01T14:14:45;1.58;;;0.70;;
61590;SDS011;57639;52.410;-1.966;2023-08-01T14:17:53;1.42;;;0.70;;
61590;SDS011;57639;52.410;-1.966;2023-08-01T14:20:59;1.20;;;0.73;;
61590;SDS011;57639;52.410;-1.966;2023-08-01T14:24:08;1.52;;;0.60;;
61590;SDS011;57639;52.410;-1.966;2023-08-01T14:27:15;1.07;;;0.57;;
61590;SDS011;57639;52.410;-1.966;2023-08-01T14:30:21;2.22;;;0.50;;
61590;SDS011;57639;52.410;-1.966;2023-08-01T14:33:30;1.73;;;0.70;;
61590;SDS011;57639;52.410;-1.966;2023-08-01T14:36:39;1.13;;;0.60;;
61590;SDS011;57639;52.410;-1.966;2023-08-01T14:39:48;3.35;;;0.77;;
61590;SDS011;57639;52.410;-1.966;2023-08-01T14:42:54;1.83;;;0.70;;
61590;SDS011;57639;52.410;-1.966;2023-08-01T14:46:01;1.90;;;0.70;;
61590;SDS011;57639;52.410;-1.966;2023-08-01T14:49:08;1.88;;;0.70;;
61590;SDS011;57639;52.410;-1.966;2023-08-01T14:52:14;1.30;;;0.60;;
61590;SDS011;57639;52.410;-1.966;2023-08-01T14:55:23;1.15;;;0.80;;
61590;SDS011;57639;52.410;-1.966;2023-08-01T14:58:29;1.23;;;0.70;;
61590;SDS011;57639;52.410;-1.966;2023-08-01T15:01:42;1.08;;;0.60;;
61590;SDS011;57639;52.410;-1.966;2023-08-01T15:04:50;1.98;;;0.60;;
61590;SDS011;57639;52.410;-1.966;2023-08-01T15:07:57;1.57;;;0.80;;
61590;SDS011;57639;52.410;-1.966;2023-08-01T15:11:10;1.45;;;0.50;;
61590;SDS011;57639;52.410;-1.966;2023-08-01T15:14:17;23.93;;;2.33;;
61590;SDS011;57639;52.410;-1.966;2023-08-01T15:17:23;3.47;;;0.60;;
61590;SDS011;57639;52.410;-1.966;2023-08-01T15:20:30;4.43;;;0.65;;
61590;SDS011;57639;52.410;-1.966;2023-08-01T15:23:42;8.70;;;0.82;;
61590;SDS011;57639;52.410;-1.966;2023-08-01T15:26:53;5.25;;;0.90;;
61590;SDS011;57639;52.410;-1.966;2023-08-01T15:30:00;3.10;;;0.60;;
61590;SDS011;57639;52.410;-1.966;2023-08-01T15:33:07;4.35;;;0.73;;
61590;SDS011;57639;52.410;-1.966;2023-08-01T15:36:19;3.22;;;0.75;;
61590;SDS011;57639;52.410;-1.966;2023-08-01T15:39:31;1.92;;;0.80;;
61590;SDS011;57639;52.410;-1.966;2023-08-01T15:42:40;3.95;;;0.60;;
61590;SDS011;57639;52.410;-1.966;2023-08-01T15:45:46;4.27;;;0.70;;
61590;SDS011;57639;52.410;-1.966;2023-08-01T15:48:53;1.67;;;0.73;;
61590;SDS011;57639;52.410;-1.966;2023-08-01T15:51:59;1.95;;;0.60;;
61590;SDS011;57639;52.410;-1.966;2023-08-01T15:55:08;2.13;;;0.80;;
61590;SDS011;57639;52.410;-1.966;2023-08-01T15:58:20;3.67;;;0.77;;
61590;SDS011;57639;52.410;-1.966;2023-08-01T16:01:27;4.03;;;0.87;;
61590;SDS011;57639;52.410;-1.966;2023-08-01T16:04:34;1.70;;;0.60;;
61590;SDS011;57639;52.410;-1.966;2023-08-01T16:07:44;0.80;;;0.50;;
61590;SDS011;57639;52.410;-1.966;2023-08-01T16:14:21;3.10;;;0.80;;
61590;SDS011;57639;52.410;-1.966;2023-08-01T16:17:27;2.35;;;0.63;;
61590;SDS011;57639;52.410;-1.966;2023-08-01T16:20:34;1.50;;;0.60;;
61590;SDS011;57639;52.410;-1.966;2023-08-01T16:23:42;1.17;;;0.40;;
61590;SDS011;57639;52.410;-1.966;2023-08-01T16:26:48;1.20;;;0.50;;
61590;SDS011;57639;52.410;-1.966;2023-08-01T16:29:57;1.92;;;0.50;;
61590;SDS011;57639;52.410;-1.966;2023-08-01T16:33:03;1.50;;;0.67;;
61590;SDS011;57639;52.410;-1.966;2023-08-01T16:36:10;2.83;;;0.90;;
61590;SDS011;57639;52.410;-1.966;2023-08-01T16:39:16;2.50;;;0.50;;
61590;SDS011;57639;52.410;-1.966;2023-08-01T16:42:22;1.63;;;0.60;;
61590;SDS011;57639;52.410;-1.966;2023-08-01T16:45:32;0.82;;;0.50;;
61590;SDS011;57639;52.410;-1.966;2023-08-01T16:48:39;2.08;;;0.55;;
61590;SDS011;57639;52.410;-1.966;2023-08-01T16:51:45;1.50;;;0.60;;
61590;SDS011;57639;52.410;-1.966;2023-08-01T16:54:51;2.47;;;0.60;;
61590;SDS011;57639;52.410;-1.966;2023-08-01T16:57:59;1.30;;;0.70;;
61590;SDS011;57639;52.410;-1.966;2023-08-01T17:01:08;1.23;;;0.50;;
61590;SDS011;57639;52.410;-1.966;2023-08-01T17:04:14;1.53;;;0.50;;
61590;SDS011;57639;52.410;-1.966;2023-08-01T17:07:23;1.38;;;0.77;;
61590;SDS011;57639;52.410;-1.966;2023-08-01T17:10:29;0.82;;;0.45;;
61590;SDS011;57639;52.410;-1.966;2023-08-01T17:13:35;2.83;;;0.80;;
61590;SDS011;57639;52.410;-1.966;2023-08-01T17:16:45;1.17;;;0.68;;
61590;SDS011;57639;52.410;-1.966;2023-08-01T17:19:51;1.08;;;0.60;;
61590;SDS011;57639;52.410;-1.966;2023-08-01T17:22:58;0.95;;;0.50;;
61590;SDS011;57639;52.410;-1.966;2023-08-01T17:26:04;1.55;;;0.60;;
61590;SDS011;57639;52.410;-1.966;2023-08-01T17:29:14;1.23;;;0.52;;
61590;SDS011;57639;52.410;-1.966;2023-08-01T17:32:23;1.48;;;0.70;;
61590;SDS011;57639;52.410;-1.966;2023-08-01T17:35:29;0.60;;;0.43;;
61590;SDS011;57639;52.410;-1.966;2023-08-01T17:38:35;1.05;;;0.43;;
61590;SDS011;57639;52.410;-1.966;2023-08-01T17:41:42;1.13;;;0.50;;
61590;SDS011;57639;52.410;-1.966;2023-08-01T17:44:52;1.00;;;0.60;;
61590;SDS011;57639;52.410;-1.966;2023-08-01T17:48:01;0.85;;;0.60;;
61590;SDS011;57639;52.410;-1.966;2023-08-01T17:51:20;1.98;;;0.80;;
61590;SDS011;57639;52.410;-1.966;2023-08-01T17:54:26;0.77;;;0.50;;
61590;SDS011;57639;52.410;-1.966;2023-08-01T17:57:33;0.85;;;0.50;;
61590;SDS011;57639;52.410;-1.966;2023-08-01T18:00:39;1.00;;;0.60;;
61590;SDS011;57639;52.410;-1.966;2023-08-01T18:03:48;0.75;;;0.50;;
61590;SDS011;57639;52.410;-1.966;2023-08-01T18:06:56;0.95;;;0.50;;
61590;SDS011;57639;52.410;-1.966;2023-08-01T18:10:02;1.27;;;0.63;;
61590;SDS011;57639;52.410;-1.966;2023-08-01T18:13:09;1.45;;;0.60;;
61590;SDS011;57639;52.410;-1.966;2023-08-01T18:16:18;1.42;;;0.50;;
61590;SDS011;57639;52.410;-1.966;2023-08-01T18:19:28;1.35;;;0.60;;
61590;SDS011;57639;52.410;-1.966;2023-08-01T18:22:34;1.10;;;0.60;;
61590;SDS011;57639;52.410;-1.966;2023-08-01T18:25:41;0.80;;;0.50;;
61590;SDS011;57639;52.410;-1.966;2023-08-01T18:28:47;1.25;;;0.60;;
61590;SDS011;57639;52.410;-1.966;2023-08-01T18:31:55;0.95;;;0.50;;
61590;SDS011;57639;52.410;-1.966;2023-08-01T18:35:05;1.00;;;0.60;;
61590;SDS011;57639;52.410;-1.966;2023-08-01T18:38:14;0.68;;;0.40;;
61590;SDS011;57639;52.410;-1.966;2023-08-01T18:41:34;1.40;;;0.50;;
61590;SDS011;57639;52.410;-1.966;2023-08-01T18:44:40;1.15;;;0.60;;
61590;SDS011;57639;52.410;-1.966;2023-08-01T18:47:47;0.95;;;0.50;;
61590;SDS011;57639;52.410;-1.966;2023-08-01T18:51:04;0.68;;;0.43;;